createdAt,value
2019-01-12T00:01:58.861Z,5.77
2019-01-12T00:04:23.267Z,7.87
2019-01-12T00:06:47.773Z,4.93
2019-01-12T00:09:12.478Z,5.93
2019-01-12T00:11:36.880Z,5.37
2019-01-12T00:14:01.318Z,5.47
2019-01-12T00:16:25.724Z,5.87
2019-01-12T00:18:50.123Z,5.57
2019-01-12T00:21:14.510Z,5.27
2019-01-12T00:23:38.943Z,5.43
2019-01-12T00:26:03.345Z,5.30
2019-01-12T00:28:27.726Z,5.67
2019-01-12T00:30:52.146Z,5.77
2019-01-12T00:33:16.560Z,6.07
2019-01-12T00:35:40.979Z,8.03
2019-01-12T00:38:05.360Z,4.87
2019-01-12T00:40:29.769Z,5.40
2019-01-12T00:42:54.197Z,5.77
2019-01-12T00:45:18.664Z,6.00
2019-01-12T00:47:43.183Z,5.40
2019-01-12T00:50:10.665Z,6.60
2019-01-12T00:52:35.063Z,6.53
2019-01-12T00:54:59.493Z,5.73
2019-01-12T00:57:23.898Z,5.70
2019-01-12T00:59:48.327Z,4.97
2019-01-12T01:02:12.708Z,5.90
2019-01-12T01:04:37.129Z,6.20
2019-01-12T01:07:01.540Z,4.97
2019-01-12T01:09:26.050Z,4.93
2019-01-12T01:11:50.496Z,5.93
2019-01-12T01:14:14.955Z,5.97
2019-01-12T01:16:39.388Z,4.33
2019-01-12T01:19:03.870Z,5.20
2019-01-12T01:21:28.291Z,4.83
2019-01-12T01:23:52.722Z,5.70
2019-01-12T01:26:17.191Z,6.03
2019-01-12T01:28:41.586Z,4.60
2019-01-12T01:31:06.023Z,4.97
2019-01-12T01:33:30.432Z,6.03
2019-01-12T01:35:54.837Z,5.73
2019-01-12T01:38:19.252Z,5.73
2019-01-12T01:40:43.650Z,5.00
2019-01-12T01:43:08.073Z,5.23
2019-01-12T01:45:32.470Z,5.87
2019-01-12T01:47:57.122Z,6.50
2019-01-12T01:50:21.539Z,5.47
2019-01-12T01:52:45.935Z,5.43
2019-01-12T01:55:10.722Z,5.27
2019-01-12T01:57:35.113Z,6.10
2019-01-12T01:59:59.510Z,5.90
2019-01-12T02:02:23.930Z,5.00
2019-01-12T02:04:48.345Z,5.17
2019-01-12T02:07:12.817Z,5.00
2019-01-12T02:09:37.162Z,5.03
2019-01-12T02:12:01.563Z,5.80
2019-01-12T02:14:25.990Z,5.13
2019-01-12T02:16:50.461Z,6.53
2019-01-12T02:19:14.889Z,5.00
2019-01-12T02:21:39.286Z,5.93
2019-01-12T02:24:03.747Z,5.60
2019-01-12T02:26:28.161Z,6.23
2019-01-12T02:28:52.561Z,4.77
2019-01-12T02:31:16.988Z,5.23
2019-01-12T02:33:41.586Z,4.63
2019-01-12T02:36:05.974Z,5.27
2019-01-12T02:38:30.374Z,4.60
2019-01-12T02:40:54.783Z,5.87
2019-01-12T02:43:19.220Z,5.23
2019-01-12T02:45:43.607Z,4.73
2019-01-12T02:48:08.080Z,5.73
2019-01-12T02:50:32.507Z,4.33
2019-01-12T02:52:56.924Z,4.43
2019-01-12T02:55:21.375Z,4.97
2019-01-12T02:57:45.767Z,3.80
2019-01-12T03:00:15.940Z,4.50
2019-01-12T03:02:40.344Z,4.77
2019-01-12T03:05:05.791Z,4.53
2019-01-12T03:07:30.206Z,4.53
2019-01-12T03:09:54.610Z,3.97
2019-01-12T03:12:19.023Z,4.23
2019-01-12T03:14:43.445Z,4.50
2019-01-12T03:17:07.866Z,4.53
2019-01-12T03:19:32.310Z,4.90
2019-01-12T03:21:56.747Z,4.60
2019-01-12T03:24:21.152Z,4.17
2019-01-12T03:26:45.586Z,3.80
2019-01-12T03:29:09.984Z,4.33
2019-01-12T03:31:34.472Z,3.73
2019-01-12T03:33:58.967Z,4.20
2019-01-12T03:36:23.387Z,3.80
2019-01-12T03:38:47.812Z,4.90
2019-01-12T03:41:12.230Z,4.00
2019-01-12T03:43:36.664Z,4.23
2019-01-12T03:46:01.075Z,3.57
2019-01-12T03:48:25.476Z,3.97
2019-01-12T03:50:49.990Z,4.50
2019-01-12T03:53:14.395Z,3.63
2019-01-12T03:55:38.780Z,4.93
2019-01-12T03:58:03.195Z,3.57
2019-01-12T04:00:27.674Z,4.73
2019-01-12T04:02:52.115Z,4.20
2019-01-12T04:05:16.607Z,4.03
2019-01-12T04:07:41.011Z,3.73
2019-01-12T04:10:08.342Z,4.23
2019-01-12T04:12:32.760Z,4.33
2019-01-12T04:14:57.160Z,4.77
2019-01-12T04:17:21.590Z,5.17
2019-01-12T04:19:46.007Z,4.03
2019-01-12T04:22:10.400Z,3.97
2019-01-12T04:24:34.818Z,3.47
2019-01-12T04:26:59.226Z,3.93
2019-01-12T04:29:23.638Z,3.60
2019-01-12T04:31:48.036Z,3.90
2019-01-12T04:34:12.435Z,3.50
2019-01-12T04:36:39.162Z,3.73
2019-01-12T04:39:05.079Z,3.57
2019-01-12T04:41:29.518Z,3.63
2019-01-12T04:43:53.921Z,4.33
2019-01-12T04:46:18.309Z,4.03
2019-01-12T04:48:42.730Z,3.50
2019-01-12T04:51:07.132Z,3.30
2019-01-12T04:53:31.562Z,3.93
2019-01-12T04:55:55.970Z,2.87
2019-01-12T04:58:20.360Z,2.77
2019-01-12T05:00:44.778Z,2.67
2019-01-12T05:03:09.189Z,3.03
2019-01-12T05:05:33.618Z,3.53
2019-01-12T05:07:58.009Z,3.13
2019-01-12T05:10:22.400Z,3.13
2019-01-12T05:12:46.840Z,2.50
2019-01-12T05:15:13.268Z,2.50
2019-01-12T05:17:37.702Z,2.70
2019-01-12T05:20:02.081Z,2.33
2019-01-12T05:22:26.491Z,2.43
2019-01-12T05:24:50.928Z,2.40
2019-01-12T05:27:15.333Z,2.50
2019-01-12T05:29:39.753Z,2.50
2019-01-12T05:32:04.149Z,2.43
2019-01-12T05:34:28.547Z,2.27
2019-01-12T05:36:52.954Z,2.50
2019-01-12T05:39:17.434Z,2.87
2019-01-12T05:41:41.856Z,3.43
2019-01-12T05:44:06.251Z,3.67
2019-01-12T05:46:30.649Z,3.47
2019-01-12T05:48:55.075Z,3.50
2019-01-12T05:51:19.454Z,3.23
2019-01-12T05:53:43.876Z,3.83
2019-01-12T05:56:08.268Z,3.63
2019-01-12T05:58:32.673Z,3.80
2019-01-12T06:00:57.096Z,3.40
2019-01-12T06:03:21.493Z,3.13
2019-01-12T06:05:45.911Z,3.70
2019-01-12T06:08:10.306Z,4.10
2019-01-12T06:10:34.705Z,3.63
2019-01-12T06:12:59.114Z,3.87
2019-01-12T06:15:23.510Z,4.00
2019-01-12T06:17:47.919Z,3.70
2019-01-12T06:20:14.662Z,3.60
2019-01-12T06:22:39.059Z,3.33
2019-01-12T06:25:03.485Z,3.43
2019-01-12T06:27:27.957Z,3.80
2019-01-12T06:29:52.363Z,3.53
2019-01-12T06:32:16.775Z,2.93
2019-01-12T06:34:41.179Z,3.53
2019-01-12T06:37:05.590Z,2.87
2019-01-12T06:39:30.001Z,3.20
2019-01-12T06:41:54.408Z,3.17
2019-01-12T06:44:18.819Z,3.17
2019-01-12T06:46:43.208Z,3.27
2019-01-12T06:49:07.590Z,3.30
2019-01-12T06:51:32.062Z,3.67
2019-01-12T06:53:56.458Z,3.63
2019-01-12T06:56:20.866Z,3.60
2019-01-12T06:58:45.268Z,3.40
2019-01-12T07:01:09.674Z,3.60
2019-01-12T07:03:34.066Z,2.90
2019-01-12T07:05:58.507Z,3.30
2019-01-12T07:08:22.872Z,2.60
2019-01-12T07:10:47.300Z,2.80
2019-01-12T07:13:11.699Z,2.73
2019-01-12T07:15:36.100Z,2.43
2019-01-12T07:18:00.506Z,2.63
2019-01-12T07:20:24.888Z,2.27
2019-01-12T07:22:49.302Z,2.27
2019-01-12T07:25:13.760Z,1.50
2019-01-12T07:27:38.258Z,1.73
2019-01-12T07:30:02.717Z,1.77
2019-01-12T07:32:27.115Z,1.50
2019-01-12T07:34:51.521Z,1.37
2019-01-12T07:37:17.114Z,1.40
2019-01-12T07:39:41.533Z,1.70
2019-01-12T07:42:05.923Z,1.60
2019-01-12T07:44:30.319Z,1.77
2019-01-12T07:46:55.083Z,2.07
2019-01-12T07:49:19.472Z,2.17
2019-01-12T07:51:43.957Z,2.07
2019-01-12T07:54:08.353Z,2.17
2019-01-12T07:56:32.744Z,1.90
2019-01-12T07:58:57.178Z,1.80
2019-01-12T08:01:21.590Z,1.90
2019-01-12T08:03:46.013Z,1.67
2019-01-12T08:06:10.389Z,1.90
2019-01-12T08:08:34.791Z,1.60
2019-01-12T08:10:59.760Z,1.80
2019-01-12T08:13:24.157Z,2.10
2019-01-12T08:15:48.601Z,1.93
2019-01-12T08:18:12.982Z,2.20
2019-01-12T08:20:37.365Z,2.37
2019-01-12T08:23:01.793Z,2.67
2019-01-12T08:25:26.194Z,2.40
2019-01-12T08:27:50.649Z,3.20
2019-01-12T08:30:17.194Z,3.30
2019-01-12T08:32:41.611Z,3.13
2019-01-12T08:35:06.666Z,2.63
2019-01-12T08:37:31.071Z,2.97
2019-01-12T08:39:55.479Z,3.40
2019-01-12T08:42:19.872Z,2.97
2019-01-12T08:44:44.274Z,2.83
2019-01-12T08:47:08.691Z,2.97
2019-01-12T08:49:33.088Z,2.93
2019-01-12T08:51:57.529Z,2.80
2019-01-12T08:54:21.959Z,3.30
2019-01-12T08:56:46.346Z,2.83
2019-01-12T08:59:10.773Z,2.77
2019-01-12T09:01:35.154Z,2.70
2019-01-12T09:03:59.588Z,2.80
2019-01-12T09:06:23.982Z,2.53
2019-01-12T09:08:48.371Z,2.50
2019-01-12T09:11:12.776Z,2.60
2019-01-12T09:13:37.178Z,2.77
2019-01-12T09:16:01.558Z,2.77
2019-01-12T09:18:25.982Z,2.57
2019-01-12T09:20:50.381Z,2.57
2019-01-12T09:23:14.780Z,2.57
2019-01-12T09:25:39.209Z,2.77
2019-01-12T09:28:03.608Z,2.20
2019-01-12T09:30:28.015Z,2.33
2019-01-12T09:32:52.761Z,2.70
2019-01-12T09:35:17.386Z,2.37
2019-01-12T09:37:41.832Z,2.80
2019-01-12T09:40:09.319Z,2.80
2019-01-12T09:42:33.704Z,2.50
2019-01-12T09:44:58.116Z,2.63
2019-01-12T09:47:25.243Z,2.80
2019-01-12T09:49:49.674Z,2.63
2019-01-12T09:52:14.065Z,2.70
2019-01-12T09:54:38.475Z,3.10
2019-01-12T09:57:02.913Z,3.23
2019-01-12T09:59:27.301Z,2.67
2019-01-12T10:01:51.705Z,3.77
2019-01-12T10:04:16.109Z,3.50
2019-01-12T10:06:40.554Z,3.60
2019-01-12T10:09:07.081Z,3.57
2019-01-12T10:11:31.473Z,3.40
2019-01-12T10:13:55.943Z,3.60
2019-01-12T10:16:20.334Z,3.20
2019-01-12T10:18:44.757Z,3.30
2019-01-12T10:21:09.469Z,3.03
2019-01-12T10:23:33.912Z,3.37
2019-01-12T10:25:58.301Z,3.13
2019-01-12T10:28:22.743Z,3.23
2019-01-12T10:30:47.139Z,3.67
2019-01-12T10:33:11.590Z,3.47
2019-01-12T10:35:36.004Z,3.27
2019-01-12T10:38:00.513Z,3.47
2019-01-12T10:40:24.917Z,3.60
2019-01-12T10:42:49.750Z,3.77
2019-01-12T10:45:16.575Z,3.80
2019-01-12T10:47:41.032Z,4.20
2019-01-12T10:50:23.245Z,4.03
2019-01-12T10:52:47.882Z,4.07
2019-01-12T10:55:12.315Z,4.17
2019-01-12T10:57:36.716Z,4.57
2019-01-12T11:00:01.191Z,4.20
2019-01-12T11:02:25.606Z,4.07
2019-01-12T11:04:50.000Z,4.33
2019-01-12T11:07:17.334Z,4.30
2019-01-12T11:09:41.737Z,4.77
2019-01-12T11:12:06.118Z,4.70
2019-01-12T11:14:30.547Z,4.97
2019-01-12T11:16:54.942Z,4.33
2019-01-12T11:19:19.414Z,4.77
2019-01-12T11:21:43.890Z,4.97
2019-01-12T11:24:08.352Z,4.60
2019-01-12T11:26:32.764Z,4.57
2019-01-12T11:28:57.154Z,5.57
2019-01-12T11:31:21.595Z,5.23
2019-01-12T11:33:46.012Z,5.90
2019-01-12T11:36:10.410Z,5.70
2019-01-12T11:38:34.838Z,5.17
2019-01-12T11:40:59.221Z,4.93
2019-01-12T11:43:23.629Z,4.77
2019-01-12T11:45:48.037Z,4.10
2019-01-12T11:48:12.444Z,4.70
2019-01-12T11:50:36.859Z,4.93
2019-01-12T11:53:01.274Z,4.93
2019-01-12T11:55:25.672Z,4.90
2019-01-12T11:57:50.152Z,4.93
2019-01-12T12:00:23.159Z,5.00
2019-01-12T12:02:47.647Z,4.93
2019-01-12T12:05:12.274Z,6.40
2019-01-12T12:07:36.679Z,5.63
2019-01-12T12:10:01.090Z,5.37
2019-01-12T12:12:25.483Z,5.87
2019-01-12T12:14:49.878Z,6.80
2019-01-12T12:17:14.319Z,7.13
2019-01-12T12:19:38.694Z,6.97
2019-01-12T12:22:03.126Z,7.23
2019-01-12T12:24:27.522Z,7.83
2019-01-12T12:26:51.923Z,7.73
2019-01-12T12:29:16.367Z,8.43
2019-01-12T12:31:40.758Z,8.40
2019-01-12T12:34:05.251Z,9.30
2019-01-12T12:36:29.650Z,8.97
2019-01-12T12:38:54.053Z,10.00
2019-01-12T12:41:18.482Z,11.20
2019-01-12T12:43:42.906Z,9.33
2019-01-12T12:46:07.314Z,9.27
2019-01-12T12:48:31.705Z,10.00
2019-01-12T12:50:56.103Z,9.63
2019-01-12T12:53:20.523Z,10.27
2019-01-12T12:55:44.920Z,8.50
2019-01-12T12:58:09.422Z,9.80
2019-01-12T13:00:33.885Z,10.17
2019-01-12T13:02:58.277Z,9.17
2019-01-12T13:05:22.696Z,8.53
2019-01-12T13:07:47.270Z,9.97
2019-01-12T13:10:14.823Z,10.00
2019-01-12T13:12:39.297Z,10.93
2019-01-12T13:15:04.767Z,11.03
2019-01-12T13:17:29.282Z,9.77
2019-01-12T13:19:53.685Z,11.03
2019-01-12T13:22:18.098Z,10.40
2019-01-12T13:24:42.559Z,10.60
2019-01-12T13:27:06.974Z,10.70
2019-01-12T13:29:31.493Z,10.10
2019-01-12T13:31:55.924Z,9.90
2019-01-12T13:34:20.349Z,9.80
2019-01-12T13:36:44.765Z,9.03
2019-01-12T13:39:09.170Z,10.30
2019-01-12T13:41:33.587Z,9.93
2019-01-12T13:43:57.985Z,10.57
2019-01-12T13:46:22.445Z,13.20
2019-01-12T13:48:46.875Z,11.60
2019-01-12T13:51:11.290Z,10.17
2019-01-12T13:53:35.699Z,9.20
2019-01-12T13:56:00.107Z,10.60
2019-01-12T13:58:24.532Z,8.93
2019-01-12T14:00:48.953Z,9.70
2019-01-12T14:03:13.352Z,9.40
2019-01-12T14:05:37.961Z,9.10
2019-01-12T14:08:02.414Z,8.43
2019-01-12T14:10:26.909Z,8.27
2019-01-12T14:12:52.146Z,9.40
2019-01-12T14:15:18.381Z,8.23
2019-01-12T14:17:42.892Z,8.40
2019-01-12T14:20:15.838Z,7.50
2019-01-12T14:22:40.286Z,6.40
2019-01-12T14:25:05.843Z,6.80
2019-01-12T14:27:30.245Z,6.13
2019-01-12T14:29:54.676Z,5.67
2019-01-12T14:32:19.098Z,4.90
2019-01-12T14:34:43.473Z,5.40
2019-01-12T14:37:07.911Z,5.90
2019-01-12T14:39:32.338Z,5.50
2019-01-12T14:41:56.753Z,5.87
2019-01-12T14:44:21.166Z,4.93
2019-01-12T14:46:45.600Z,5.40
2019-01-12T14:49:10.042Z,4.70
2019-01-12T14:51:34.455Z,5.03
2019-01-12T14:53:58.855Z,5.50
2019-01-12T14:56:23.302Z,5.60
2019-01-12T14:58:47.686Z,5.43
2019-01-12T15:01:12.147Z,5.03
2019-01-12T15:03:36.542Z,4.77
2019-01-12T15:06:00.949Z,5.10
2019-01-12T15:08:25.363Z,5.10
2019-01-12T15:10:49.764Z,5.60
2019-01-12T15:13:14.185Z,5.67
2019-01-12T15:15:38.607Z,5.20
2019-01-12T15:18:03.080Z,4.80
2019-01-12T15:20:28.046Z,5.77
2019-01-12T15:22:52.434Z,5.27
2019-01-12T15:25:16.962Z,4.87
2019-01-12T15:27:41.402Z,5.50
2019-01-12T15:30:17.554Z,5.53
2019-01-12T15:32:41.977Z,5.20
2019-01-12T15:35:07.147Z,5.20
2019-01-12T15:37:31.584Z,5.23
2019-01-12T15:39:55.988Z,4.87
2019-01-12T15:42:20.438Z,4.63
2019-01-12T15:44:44.862Z,4.60
2019-01-12T15:47:09.231Z,4.80
2019-01-12T15:49:33.647Z,4.67
2019-01-12T15:51:58.029Z,3.63
2019-01-12T15:54:22.409Z,4.17
2019-01-12T15:56:46.831Z,3.17
2019-01-12T15:59:11.223Z,4.17
2019-01-12T16:01:35.641Z,4.53
2019-01-12T16:04:00.027Z,4.23
2019-01-12T16:06:24.436Z,3.37
2019-01-12T16:08:48.847Z,4.37
2019-01-12T16:11:13.251Z,4.00
2019-01-12T16:13:37.672Z,4.23
2019-01-12T16:16:02.058Z,4.53
2019-01-12T16:18:26.447Z,4.03
2019-01-12T16:20:50.885Z,4.43
2019-01-12T16:23:15.346Z,3.80
2019-01-12T16:25:39.773Z,3.73
2019-01-12T16:28:04.178Z,3.97
2019-01-12T16:30:28.574Z,3.60
2019-01-12T16:32:53.003Z,4.30
2019-01-12T16:35:18.244Z,4.07
2019-01-12T16:37:43.342Z,4.50
2019-01-12T16:40:10.858Z,4.20
2019-01-12T16:42:35.183Z,4.90
2019-01-12T16:44:59.588Z,3.97
2019-01-12T16:47:28.679Z,4.13
2019-01-12T16:49:53.128Z,3.50
2019-01-12T16:52:17.521Z,4.03
2019-01-12T16:54:41.929Z,4.80
2019-01-12T16:57:06.357Z,3.37
2019-01-12T16:59:30.749Z,3.40
2019-01-12T17:01:55.176Z,3.60
2019-01-12T17:04:19.574Z,4.17
2019-01-12T17:06:43.977Z,3.80
2019-01-12T17:09:09.040Z,3.47
2019-01-12T17:11:33.450Z,3.97
2019-01-12T17:13:57.872Z,3.30
2019-01-12T17:16:22.250Z,3.13
2019-01-12T17:18:46.648Z,4.13
2019-01-12T17:21:11.057Z,4.67
2019-01-12T17:23:35.457Z,4.00
2019-01-12T17:25:59.845Z,3.80
2019-01-12T17:28:24.273Z,3.73
2019-01-12T17:30:48.750Z,3.67
2019-01-12T17:33:13.141Z,3.87
2019-01-12T17:35:37.574Z,4.30
2019-01-12T17:38:01.958Z,4.37
2019-01-12T17:40:26.428Z,3.60
2019-01-12T17:42:50.863Z,3.97
2019-01-12T17:45:17.404Z,3.90
2019-01-12T17:47:41.814Z,3.70
2019-01-12T17:50:09.273Z,3.77
2019-01-12T17:52:33.678Z,4.00
2019-01-12T17:54:58.105Z,2.90
2019-01-12T17:57:22.678Z,4.17
2019-01-12T17:59:47.084Z,3.93
2019-01-12T18:02:11.544Z,3.47
2019-01-12T18:04:35.933Z,3.10
2019-01-12T18:07:00.379Z,3.33
2019-01-12T18:09:24.864Z,3.00
2019-01-12T18:11:49.272Z,2.77
2019-01-12T18:14:13.726Z,2.63
2019-01-12T18:16:38.106Z,2.27
2019-01-12T18:19:02.520Z,2.10
2019-01-12T18:21:26.928Z,2.83
2019-01-12T18:23:51.330Z,2.50
2019-01-12T18:26:15.747Z,3.60
2019-01-12T18:28:40.129Z,2.93
2019-01-12T18:31:04.641Z,3.27
2019-01-12T18:33:29.048Z,3.30
2019-01-12T18:35:53.440Z,3.87
2019-01-12T18:38:17.868Z,3.07
2019-01-12T18:40:42.319Z,2.60
2019-01-12T18:43:06.823Z,2.60
2019-01-12T18:45:31.203Z,1.80
2019-01-12T18:47:55.600Z,2.43
2019-01-12T18:50:22.469Z,2.63
2019-01-12T18:52:46.867Z,2.00
2019-01-12T18:55:12.957Z,2.60
2019-01-12T18:57:37.355Z,2.63
2019-01-12T19:00:01.771Z,2.60
2019-01-12T19:02:27.786Z,2.53
2019-01-12T19:04:52.193Z,2.33
2019-01-12T19:07:16.628Z,3.07
2019-01-12T19:09:41.022Z,2.60
2019-01-12T19:12:05.407Z,3.63
2019-01-12T19:14:29.827Z,3.13
2019-01-12T19:16:54.240Z,2.93
2019-01-12T19:19:18.670Z,2.60
2019-01-12T19:21:43.071Z,2.20
2019-01-12T19:24:07.455Z,2.73
2019-01-12T19:26:31.900Z,2.63
2019-01-12T19:28:56.300Z,2.43
2019-01-12T19:31:20.715Z,2.50
2019-01-12T19:33:45.111Z,2.43
2019-01-12T19:36:09.511Z,2.33
2019-01-12T19:38:33.913Z,2.40
2019-01-12T19:40:58.299Z,2.00
2019-01-12T19:43:22.754Z,1.83
2019-01-12T19:45:47.163Z,3.13
2019-01-12T19:48:11.564Z,1.87
2019-01-12T19:50:35.977Z,1.70
2019-01-12T19:53:00.379Z,2.37
2019-01-12T19:55:24.800Z,1.80
2019-01-12T19:57:49.195Z,2.20
2019-01-12T20:00:19.705Z,1.60
2019-01-12T20:02:44.224Z,2.43
2019-01-12T20:05:08.696Z,1.83
2019-01-12T20:07:33.116Z,1.83
2019-01-12T20:09:57.581Z,1.77
2019-01-12T20:12:21.967Z,2.40
2019-01-12T20:14:46.372Z,1.97
2019-01-12T20:17:10.792Z,2.00
2019-01-12T20:19:35.189Z,2.90
2019-01-12T20:21:59.589Z,2.83
2019-01-12T20:24:23.997Z,3.20
2019-01-12T20:26:48.425Z,2.50
2019-01-12T20:29:12.859Z,2.60
2019-01-12T20:31:42.991Z,2.47
2019-01-12T20:34:10.515Z,2.23
2019-01-12T20:36:37.948Z,2.90
2019-01-12T20:39:27.982Z,2.90
2019-01-12T20:42:13.498Z,3.80
2019-01-12T20:45:14.075Z,3.10
2019-01-12T20:47:41.565Z,2.83
2019-01-12T20:50:14.710Z,3.43
2019-01-12T20:52:50.916Z,3.13
2019-01-12T20:55:18.374Z,3.37
2019-01-12T20:57:51.515Z,2.10
2019-01-12T21:00:35.052Z,2.47
2019-01-12T21:03:08.375Z,2.33
2019-01-12T21:05:47.762Z,2.90
2019-01-12T21:08:18.148Z,2.33
2019-01-12T21:10:54.464Z,2.57
2019-01-12T21:13:33.871Z,2.30
2019-01-12T21:16:01.732Z,2.90
2019-01-12T21:18:26.174Z,2.60
2019-01-12T21:20:50.756Z,2.20
2019-01-12T21:23:15.127Z,2.43
2019-01-12T21:25:39.589Z,2.90
2019-01-12T21:28:03.995Z,3.07
2019-01-12T21:30:28.505Z,2.20
2019-01-12T21:32:52.903Z,1.93
2019-01-12T21:35:17.334Z,2.40
2019-01-12T21:37:41.789Z,2.53
2019-01-12T21:40:09.466Z,2.23
2019-01-12T21:42:33.884Z,2.17
2019-01-12T21:44:58.294Z,1.97
2019-01-12T21:47:27.369Z,2.00
2019-01-12T21:49:51.784Z,2.13
2019-01-12T21:52:16.215Z,2.07
2019-01-12T21:54:40.636Z,1.90
2019-01-12T21:57:05.023Z,2.00
2019-01-12T21:59:29.452Z,2.07
2019-01-12T22:01:53.889Z,2.20
2019-01-12T22:04:18.266Z,1.63
2019-01-12T22:06:42.692Z,1.63
2019-01-12T22:09:08.638Z,1.80
2019-01-12T22:11:33.071Z,1.83
2019-01-12T22:13:57.463Z,2.03
2019-01-12T22:16:21.845Z,1.87
2019-01-12T22:18:46.248Z,1.93
2019-01-12T22:21:10.641Z,1.70
2019-01-12T22:23:35.033Z,2.30
2019-01-12T22:25:59.420Z,1.67
2019-01-12T22:28:23.805Z,1.70
2019-01-12T22:30:48.200Z,1.60
2019-01-12T22:33:12.604Z,1.40
2019-01-12T22:35:37.040Z,1.43
2019-01-12T22:38:01.435Z,1.30
2019-01-12T22:40:25.839Z,1.30
2019-01-12T22:42:50.270Z,1.33
2019-01-12T22:45:14.671Z,1.10
2019-01-12T22:47:39.090Z,0.97
2019-01-12T22:50:04.475Z,1.33
2019-01-12T22:52:30.013Z,1.13
2019-01-12T22:54:54.415Z,1.30
2019-01-12T22:57:18.845Z,1.57
2019-01-12T22:59:43.211Z,1.00
2019-01-12T23:02:08.219Z,1.30
2019-01-12T23:04:32.701Z,1.57
2019-01-12T23:06:57.100Z,1.40
2019-01-12T23:09:21.552Z,1.33
2019-01-12T23:11:45.940Z,1.60
2019-01-12T23:14:10.355Z,1.23
2019-01-12T23:16:34.748Z,1.40
2019-01-12T23:18:59.139Z,1.47
2019-01-12T23:21:23.587Z,1.50
2019-01-12T23:23:47.976Z,1.37
2019-01-12T23:26:12.406Z,1.50
2019-01-12T23:28:36.825Z,1.77
2019-01-12T23:31:01.216Z,1.57
2019-01-12T23:33:25.644Z,1.70
2019-01-12T23:35:50.047Z,1.53
2019-01-12T23:38:14.541Z,1.60
2019-01-12T23:40:39.015Z,1.60
2019-01-12T23:43:03.420Z,1.90
2019-01-12T23:45:27.867Z,2.20
2019-01-12T23:47:52.267Z,1.67
2019-01-12T23:50:16.725Z,2.20
2019-01-12T23:52:41.121Z,1.93
2019-01-12T23:55:06.365Z,1.87
2019-01-12T23:57:30.842Z,1.97
2019-01-12T23:59:55.226Z,2.10
